createdAt,value
2018-11-21T00:02:27.914Z,-2.24
2018-11-21T00:04:56.079Z,-2.24
2018-11-21T00:07:24.257Z,-2.17
2018-11-21T00:09:52.469Z,-2.13
2018-11-21T00:12:20.761Z,-2.18
2018-11-21T00:14:48.978Z,-2.25
2018-11-21T00:17:17.206Z,-2.33
2018-11-21T00:19:45.431Z,-2.23
2018-11-21T00:22:13.681Z,-2.19
2018-11-21T00:24:41.882Z,-2.26
2018-11-21T00:27:10.054Z,-2.23
2018-11-21T00:29:38.195Z,-2.28
2018-11-21T00:32:10.613Z,-2.16
2018-11-21T00:34:38.792Z,-2.23
2018-11-21T00:37:06.938Z,-2.35
2018-11-21T00:39:35.105Z,-2.34
2018-11-21T00:42:03.280Z,-2.31
2018-11-21T00:44:31.426Z,-2.27
2018-11-21T00:46:59.595Z,-2.35
2018-11-21T00:49:28.213Z,-2.28
2018-11-21T00:51:56.370Z,-2.34
2018-11-21T00:54:24.523Z,-2.35
2018-11-21T00:56:52.688Z,-2.35
2018-11-21T00:59:20.936Z,-2.42
2018-11-21T01:01:49.498Z,-2.44
2018-11-21T01:04:17.673Z,-2.38
2018-11-21T01:06:46.140Z,-2.51
2018-11-21T01:09:14.297Z,-2.52
2018-11-21T01:11:42.483Z,-2.52
2018-11-21T01:14:11.231Z,-2.53
2018-11-21T01:16:39.423Z,-2.59
2018-11-21T01:19:07.603Z,-2.57
2018-11-21T01:21:35.760Z,-2.60
2018-11-21T01:24:03.949Z,-2.70
2018-11-21T01:26:32.280Z,-2.70
2018-11-21T01:29:00.472Z,-2.70
2018-11-21T01:31:28.818Z,-2.67
2018-11-21T01:33:57.819Z,-2.74
2018-11-21T01:36:25.999Z,-2.74
2018-11-21T01:38:54.186Z,-2.69
2018-11-21T01:41:22.414Z,-2.66
2018-11-21T01:43:50.566Z,-2.61
2018-11-21T01:46:18.730Z,-2.63
2018-11-21T01:48:46.910Z,-2.63
2018-11-21T01:51:15.065Z,-2.63
2018-11-21T01:53:43.232Z,-2.57
2018-11-21T01:56:11.696Z,-2.45
2018-11-21T01:58:39.847Z,-2.37
2018-11-21T02:01:08.339Z,-2.41
2018-11-21T02:03:36.821Z,-2.47
2018-11-21T02:06:05.659Z,-2.49
2018-11-21T02:08:33.985Z,-2.61
2018-11-21T02:11:02.197Z,-2.55
2018-11-21T02:13:30.360Z,-2.54
2018-11-21T02:15:58.607Z,-2.46
2018-11-21T02:18:27.363Z,-2.58
2018-11-21T02:20:55.517Z,-2.68
2018-11-21T02:23:23.681Z,-2.65
2018-11-21T02:25:51.859Z,-2.70
2018-11-21T02:28:20.015Z,-2.69
2018-11-21T02:30:48.201Z,-2.72
2018-11-21T02:33:16.732Z,-2.74
2018-11-21T02:35:44.907Z,-2.78
2018-11-21T02:38:13.068Z,-2.76
2018-11-21T02:40:41.314Z,-2.74
2018-11-21T02:43:09.562Z,-2.75
2018-11-21T02:45:37.698Z,-2.77
2018-11-21T02:48:06.020Z,-2.80
2018-11-21T02:50:34.183Z,-2.79
2018-11-21T02:53:02.390Z,-2.88
2018-11-21T02:55:30.733Z,-2.84
2018-11-21T02:57:58.883Z,-2.85
2018-11-21T03:00:28.133Z,-2.80
2018-11-21T03:02:56.306Z,-2.82
2018-11-21T03:05:24.480Z,-2.80
2018-11-21T03:07:56.930Z,-2.70
2018-11-21T03:10:25.705Z,-2.47
2018-11-21T03:12:54.071Z,-2.43
2018-11-21T03:15:22.238Z,-2.43
2018-11-21T03:17:50.429Z,-2.36
2018-11-21T03:20:18.795Z,-2.25
2018-11-21T03:22:47.171Z,-2.23
2018-11-21T03:25:15.371Z,-2.25
2018-11-21T03:27:43.561Z,-2.25
2018-11-21T03:30:12.813Z,-2.23
2018-11-21T03:32:41.623Z,-2.20
2018-11-21T03:35:09.881Z,-2.16
2018-11-21T03:37:38.136Z,-2.15
2018-11-21T03:40:09.062Z,-2.02
2018-11-21T03:42:37.476Z,-1.94
2018-11-21T03:45:07.645Z,-1.86
2018-11-21T03:47:35.844Z,-1.80
2018-11-21T03:50:04.788Z,-1.70
2018-11-21T03:52:32.925Z,-1.65
2018-11-21T03:55:01.106Z,-1.59
2018-11-21T03:57:29.371Z,-1.57
2018-11-21T03:59:57.522Z,-1.51
2018-11-21T04:02:25.695Z,-1.52
2018-11-21T04:04:53.919Z,-1.52
2018-11-21T04:07:22.205Z,-1.50
2018-11-21T04:09:50.304Z,-1.48
2018-11-21T04:12:18.490Z,-1.43
2018-11-21T04:14:46.643Z,-1.37
2018-11-21T04:17:14.831Z,-1.33
2018-11-21T04:19:43.622Z,-1.36
2018-11-21T04:22:12.123Z,-1.29
2018-11-21T04:24:40.340Z,-1.26
2018-11-21T04:27:08.488Z,-1.21
2018-11-21T04:29:36.657Z,-1.18
2018-11-21T04:32:05.102Z,-1.16
2018-11-21T04:34:33.669Z,-1.17
2018-11-21T04:37:01.847Z,-1.14
2018-11-21T04:39:30.053Z,-1.12
2018-11-21T04:41:58.233Z,-0.98
2018-11-21T04:44:26.438Z,-0.96
2018-11-21T04:46:54.596Z,-0.93
2018-11-21T04:49:22.753Z,-0.87
2018-11-21T04:51:50.901Z,-0.79
2018-11-21T04:54:19.516Z,-0.73
2018-11-21T04:56:47.692Z,-0.70
2018-11-21T04:59:15.856Z,-0.62
2018-11-21T05:01:44.044Z,-0.59
2018-11-21T05:04:12.610Z,-0.61
2018-11-21T05:06:40.756Z,-0.56
2018-11-21T05:09:10.534Z,-0.57
2018-11-21T05:11:38.684Z,-0.57
2018-11-21T05:14:07.178Z,-0.50
2018-11-21T05:16:35.348Z,-0.47
2018-11-21T05:19:03.509Z,-0.51
2018-11-21T05:21:31.663Z,-0.45
2018-11-21T05:23:59.936Z,-0.42
2018-11-21T05:26:28.098Z,-0.34
2018-11-21T05:28:56.285Z,-0.31
2018-11-21T05:31:24.477Z,-0.34
2018-11-21T05:33:52.647Z,-0.36
2018-11-21T05:36:20.931Z,-0.40
2018-11-21T05:38:49.113Z,-0.28
2018-11-21T05:41:17.267Z,-0.18
2018-11-21T05:43:45.413Z,-0.16
2018-11-21T05:46:13.578Z,0.03
2018-11-21T05:48:41.733Z,0.06
2018-11-21T05:51:09.888Z,0.04
2018-11-21T05:53:38.087Z,0.08
2018-11-21T05:56:06.245Z,0.10
2018-11-21T05:58:34.397Z,0.09
2018-11-21T06:01:02.960Z,0.10
2018-11-21T06:03:31.122Z,0.09
2018-11-21T06:05:59.285Z,0.07
2018-11-21T06:08:27.460Z,0.05
2018-11-21T06:10:55.942Z,0.07
2018-11-21T06:13:24.101Z,0.02
2018-11-21T06:15:52.282Z,-0.09
2018-11-21T06:18:20.471Z,-0.15
2018-11-21T06:20:48.626Z,-0.15
2018-11-21T06:23:16.809Z,-0.16
2018-11-21T06:25:44.990Z,-0.16
2018-11-21T06:28:13.192Z,-0.24
2018-11-21T06:30:41.737Z,-0.22
2018-11-21T06:33:09.942Z,-0.24
2018-11-21T06:35:38.150Z,-0.22
2018-11-21T06:38:06.407Z,-0.18
2018-11-21T06:40:34.655Z,-0.09
2018-11-21T06:43:02.831Z,-0.10
2018-11-21T06:45:31.015Z,-0.06
2018-11-21T06:47:59.161Z,-0.03
2018-11-21T06:50:27.324Z,0.02
2018-11-21T06:52:56.945Z,0.05
2018-11-21T06:55:25.095Z,0.09
2018-11-21T06:57:53.259Z,0.18
2018-11-21T07:00:21.467Z,0.24
2018-11-21T07:02:49.612Z,0.26
2018-11-21T07:05:17.759Z,0.40
2018-11-21T07:07:45.937Z,0.45
2018-11-21T07:10:14.993Z,0.59
2018-11-21T07:12:43.798Z,0.67
2018-11-21T07:15:11.952Z,0.69
2018-11-21T07:17:40.103Z,0.81
2018-11-21T07:20:12.494Z,0.84
2018-11-21T07:22:41.018Z,0.93
2018-11-21T07:25:16.020Z,0.96
2018-11-21T07:27:44.296Z,1.47
2018-11-21T07:30:13.910Z,1.93
2018-11-21T07:32:42.064Z,2.41
2018-11-21T07:35:10.759Z,2.67
2018-11-21T07:37:40.093Z,2.53
2018-11-21T07:40:09.859Z,2.32
2018-11-21T07:42:38.023Z,2.17
2018-11-21T07:45:08.715Z,2.21
2018-11-21T07:47:37.055Z,2.05
2018-11-21T07:50:20.195Z,1.96
2018-11-21T07:52:48.353Z,1.88
2018-11-21T07:55:16.491Z,1.97
2018-11-21T07:57:52.601Z,2.06
2018-11-21T08:01:00.312Z,2.13
2018-11-21T08:03:30.381Z,2.17
2018-11-21T08:06:19.184Z,2.22
2018-11-21T08:09:15.170Z,2.22
2018-11-21T08:12:01.052Z,2.31
2018-11-21T08:14:42.367Z,2.42
2018-11-21T08:17:29.630Z,2.34
2018-11-21T08:20:15.689Z,2.23
2018-11-21T08:23:05.866Z,2.39
2018-11-21T08:25:51.924Z,2.47
2018-11-21T08:28:28.008Z,2.52
2018-11-21T08:30:56.162Z,2.46
2018-11-21T08:33:24.330Z,2.40
2018-11-21T08:35:52.478Z,2.47
2018-11-21T08:38:20.630Z,2.44
2018-11-21T08:40:48.804Z,2.50
2018-11-21T08:43:16.967Z,2.57
2018-11-21T08:45:45.325Z,2.52
2018-11-21T08:48:14.239Z,2.57
2018-11-21T08:50:42.386Z,2.65
2018-11-21T08:53:10.539Z,2.66
2018-11-21T08:55:39.093Z,2.69
2018-11-21T08:58:07.926Z,2.84
2018-11-21T09:00:36.163Z,2.75
2018-11-21T09:03:05.012Z,2.91
2018-11-21T09:05:33.189Z,2.98
2018-11-21T09:08:01.331Z,3.05
2018-11-21T09:12:57.174Z,3.13
2018-11-21T09:15:25.311Z,3.19
2018-11-21T09:17:53.480Z,3.24
2018-11-21T09:20:21.637Z,3.28
2018-11-21T09:22:49.799Z,3.24
2018-11-21T09:25:17.970Z,3.32
2018-11-21T09:27:46.112Z,3.27
2018-11-21T09:30:15.818Z,3.31
2018-11-21T09:32:44.668Z,3.32
2018-11-21T09:35:14.349Z,3.50
2018-11-21T09:37:42.479Z,3.55
2018-11-21T09:40:12.417Z,3.49
2018-11-21T09:42:41.448Z,3.56
2018-11-21T09:45:11.438Z,3.62
2018-11-21T09:47:39.477Z,3.71
2018-11-21T09:50:10.227Z,3.73
2018-11-21T09:52:38.376Z,3.81
2018-11-21T09:55:06.789Z,3.83
2018-11-21T09:57:35.346Z,3.91
2018-11-21T10:00:22.899Z,4.02
2018-11-21T10:03:11.231Z,4.45
2018-11-21T10:05:39.427Z,5.08
2018-11-21T10:08:36.159Z,5.11
2018-11-21T10:11:04.328Z,4.81
2018-11-21T10:13:32.798Z,4.73
2018-11-21T10:16:01.587Z,4.76
2018-11-21T10:18:29.745Z,4.91
2018-11-21T10:20:57.904Z,5.19
2018-11-21T10:23:26.048Z,4.94
2018-11-21T10:25:54.216Z,4.87
2018-11-21T10:28:22.713Z,4.78
2018-11-21T10:30:50.884Z,4.74
2018-11-21T10:33:19.046Z,4.65
2018-11-21T10:35:47.200Z,4.71
2018-11-21T10:38:15.350Z,4.74
2018-11-21T10:40:43.522Z,4.85
2018-11-21T10:43:11.666Z,4.82
2018-11-21T10:45:39.829Z,4.93
2018-11-21T10:48:07.988Z,5.56
2018-11-21T10:50:36.151Z,5.92
2018-11-21T10:53:04.655Z,5.98
2018-11-21T10:55:32.801Z,5.84
2018-11-21T10:58:01.567Z,5.76
2018-11-21T11:00:47.663Z,5.73
2018-11-21T11:03:20.369Z,5.64
2018-11-21T11:06:04.401Z,5.95
2018-11-21T11:09:00.675Z,5.81
2018-11-21T11:11:53.898Z,5.91
2018-11-21T11:14:39.974Z,5.64
2018-11-21T11:17:19.419Z,5.66
2018-11-21T11:20:19.012Z,5.59
2018-11-21T11:23:04.917Z,5.83
2018-11-21T11:26:10.267Z,5.84
2018-11-21T11:28:56.574Z,5.58
2018-11-21T11:31:46.556Z,5.93
2018-11-21T11:34:21.192Z,5.85
2018-11-21T11:37:23.938Z,5.77
2018-11-21T11:40:09.981Z,5.92
2018-11-21T11:42:55.853Z,6.01
2018-11-21T11:45:45.300Z,6.10
2018-11-21T11:48:44.521Z,5.98
2018-11-21T11:51:30.276Z,6.15
2018-11-21T11:54:20.468Z,6.12
2018-11-21T11:57:16.901Z,6.19
2018-11-21T12:00:00.243Z,6.17
2018-11-21T12:03:02.760Z,6.14
2018-11-21T12:05:53.015Z,6.38
2018-11-21T12:08:55.629Z,6.31
2018-11-21T12:11:41.785Z,6.02
2018-11-21T12:14:32.137Z,6.13
2018-11-21T12:17:18.438Z,6.46
2018-11-21T12:20:24.079Z,6.41
2018-11-21T12:23:14.078Z,6.42
2018-11-21T12:26:00.482Z,6.36
2018-11-21T12:28:53.737Z,6.23
2018-11-21T12:31:32.608Z,6.19
2018-11-21T12:34:28.690Z,6.24
2018-11-21T12:37:14.818Z,6.38
2018-11-21T12:40:00.670Z,6.30
2018-11-21T12:42:50.679Z,6.10
2018-11-21T12:45:44.460Z,6.44
2018-11-21T12:48:30.415Z,6.34
2018-11-21T12:51:32.907Z,6.23
2018-11-21T12:54:20.207Z,5.91
2018-11-21T12:56:58.459Z,5.80
2018-11-21T12:59:48.735Z,5.71
2018-11-21T13:02:36.000Z,5.69
2018-11-21T13:05:24.969Z,5.74
2018-11-21T13:08:17.176Z,8.47
2018-11-21T13:11:03.171Z,11.66
2018-11-21T13:13:53.177Z,13.32
2018-11-21T13:16:39.478Z,15.55
2018-11-21T13:19:26.768Z,16.64
2018-11-21T13:22:13.094Z,16.56
2018-11-21T13:25:12.676Z,16.45
2018-11-21T13:28:18.303Z,15.99
2018-11-21T13:31:04.290Z,16.03
2018-11-21T13:33:51.599Z,16.31
2018-11-21T13:36:50.934Z,16.21
2018-11-21T13:39:47.322Z,16.74
2018-11-21T13:42:38.093Z,15.70
2018-11-21T13:45:31.050Z,15.75
2018-11-21T13:48:27.433Z,15.80
2018-11-21T13:51:14.702Z,15.73
2018-11-21T13:54:15.350Z,15.36
2018-11-21T13:56:43.639Z,14.76
2018-11-21T13:59:11.751Z,14.32
2018-11-21T14:01:39.907Z,13.88
2018-11-21T14:04:08.079Z,12.93
2018-11-21T14:06:36.223Z,12.83
2018-11-21T14:09:06.789Z,13.18
2018-11-21T14:11:34.939Z,11.86
2018-11-21T14:14:03.091Z,11.33
2018-11-21T14:16:31.243Z,10.80
2018-11-21T14:18:59.509Z,9.85
2018-11-21T14:21:27.985Z,9.83
2018-11-21T14:23:56.157Z,9.29
2018-11-21T14:26:24.382Z,9.41
2018-11-21T14:28:52.512Z,8.42
2018-11-21T14:31:20.669Z,8.25
2018-11-21T14:33:48.820Z,7.77
2018-11-21T14:36:16.962Z,7.55
2018-11-21T14:38:45.116Z,7.79
2018-11-21T14:41:13.299Z,7.56
2018-11-21T14:43:41.488Z,7.26
2018-11-21T14:46:10.356Z,6.69
2018-11-21T14:48:38.775Z,6.08
2018-11-21T14:51:06.956Z,5.99
2018-11-21T14:53:35.096Z,5.56
2018-11-21T14:56:03.295Z,5.34
2018-11-21T14:58:31.480Z,4.93
2018-11-21T15:00:59.643Z,4.82
2018-11-21T15:03:28.146Z,4.59
2018-11-21T15:05:56.340Z,4.48
2018-11-21T15:08:24.492Z,4.46
2018-11-21T15:10:52.647Z,4.30
2018-11-21T15:13:20.801Z,4.09
2018-11-21T15:15:48.949Z,3.78
2018-11-21T15:18:17.103Z,3.60
2018-11-21T15:20:45.267Z,3.46
2018-11-21T15:23:13.531Z,3.33
2018-11-21T15:25:41.743Z,3.25
2018-11-21T15:28:09.879Z,3.22
2018-11-21T15:30:38.063Z,3.18
2018-11-21T15:33:06.455Z,3.11
2018-11-21T15:35:34.645Z,2.99
2018-11-21T15:38:02.822Z,2.99
2018-11-21T15:40:30.988Z,2.99
2018-11-21T15:42:59.174Z,2.97
2018-11-21T15:45:27.858Z,2.89
2018-11-21T15:47:57.736Z,2.90
2018-11-21T15:50:26.624Z,2.97
2018-11-21T15:52:54.786Z,2.91
2018-11-21T15:55:23.215Z,3.01
2018-11-21T15:57:51.368Z,3.03
2018-11-21T16:00:22.346Z,3.04
2018-11-21T16:02:51.931Z,3.14
2018-11-21T16:05:20.173Z,3.16
2018-11-21T16:07:48.624Z,3.11
2018-11-21T16:10:19.051Z,3.15
2018-11-21T16:12:46.828Z,3.25
2018-11-21T16:15:17.902Z,3.19
2018-11-21T16:17:46.097Z,3.23
2018-11-21T16:20:15.380Z,3.21
2018-11-21T16:22:43.615Z,3.47
2018-11-21T16:25:14.873Z,3.42
2018-11-21T16:27:43.803Z,3.35
2018-11-21T16:30:14.159Z,3.31
2018-11-21T16:32:42.836Z,3.45
2018-11-21T16:35:11.385Z,3.40
2018-11-21T16:37:40.337Z,3.38
2018-11-21T16:40:14.039Z,3.40
2018-11-21T16:42:42.381Z,3.47
2018-11-21T16:45:12.602Z,3.59
2018-11-21T16:47:40.787Z,3.51
2018-11-21T16:50:11.356Z,3.66
2018-11-21T16:52:39.797Z,3.57
2018-11-21T16:55:09.580Z,3.66
2018-11-21T16:57:37.735Z,3.56
2018-11-21T17:00:08.986Z,3.58
2018-11-21T17:02:37.179Z,3.63
2018-11-21T17:05:07.205Z,3.69
2018-11-21T17:07:35.760Z,3.61
2018-11-21T17:10:04.312Z,3.58
2018-11-21T17:12:32.478Z,3.45
2018-11-21T17:15:00.690Z,3.54
2018-11-21T17:17:28.883Z,3.71
2018-11-21T17:19:57.855Z,3.53
2018-11-21T17:22:26.191Z,3.46
2018-11-21T17:24:54.218Z,3.62
2018-11-21T17:27:22.387Z,3.63
2018-11-21T17:29:53.979Z,3.49
2018-11-21T17:32:18.851Z,3.48
2018-11-21T17:34:47.036Z,3.41
2018-11-21T17:37:15.301Z,3.44
2018-11-21T17:39:43.755Z,3.44
2018-11-21T17:42:11.929Z,3.38
2018-11-21T17:44:40.083Z,3.34
2018-11-21T17:47:08.289Z,3.36
2018-11-21T17:49:36.772Z,3.39
2018-11-21T17:52:05.057Z,3.37
2018-11-21T17:54:33.278Z,3.30
2018-11-21T17:57:01.453Z,3.32
2018-11-21T17:59:29.651Z,3.34
2018-11-21T18:02:01.809Z,3.37
2018-11-21T18:04:30.855Z,3.37
2018-11-21T18:06:59.064Z,3.37
2018-11-21T18:09:27.224Z,3.37
2018-11-21T18:11:55.380Z,3.36
2018-11-21T18:14:23.580Z,3.53
2018-11-21T18:16:51.753Z,3.71
2018-11-21T18:19:19.928Z,3.68
2018-11-21T18:21:48.153Z,3.62
2018-11-21T18:24:16.344Z,3.64
2018-11-21T18:26:44.576Z,3.70
2018-11-21T18:29:13.148Z,3.81
2018-11-21T18:31:41.323Z,3.80
2018-11-21T18:34:09.713Z,3.80
2018-11-21T18:36:38.139Z,3.74
2018-11-21T18:39:08.897Z,3.71
2018-11-21T18:41:37.089Z,3.65
2018-11-21T18:44:05.299Z,3.51
2018-11-21T18:46:33.490Z,3.50
2018-11-21T18:49:01.985Z,3.58
2018-11-21T18:51:30.213Z,3.61
2018-11-21T18:53:58.396Z,3.66
2018-11-21T18:56:33.664Z,3.79
2018-11-21T18:59:37.719Z,3.66
2018-11-21T19:02:06.136Z,3.63
2018-11-21T19:04:34.304Z,3.72
2018-11-21T19:07:02.484Z,3.70
2018-11-21T19:09:30.642Z,3.71
2018-11-21T19:11:58.838Z,3.90
2018-11-21T19:14:27.007Z,3.89
2018-11-21T19:16:55.162Z,3.79
2018-11-21T19:19:23.346Z,3.72
2018-11-21T19:21:51.550Z,3.80
2018-11-21T19:24:19.703Z,3.79
2018-11-21T19:26:47.850Z,3.82
2018-11-21T19:29:16.026Z,3.81
2018-11-21T19:31:44.189Z,3.92
2018-11-21T19:34:12.719Z,3.99
2018-11-21T19:36:41.310Z,3.98
2018-11-21T19:39:12.351Z,4.05
2018-11-21T19:41:40.897Z,4.04
2018-11-21T19:44:09.065Z,4.05
2018-11-21T19:46:37.523Z,4.10
